Airfield :
LOGIN :

Register | Disclaimer

   EN    FR    IT 

 










Legend :    VFR   Marginal VFR   IFR   Intensive IFR   Very Intensive IFR
Visi :
Ceiling :
>= 8 km
>= 3000ft
5 to 8 km
1000 to 3000 ft
1500m to 5 km
500 to 1000 ft
800 to 1500m
200 to 500 ft
< 800m
< 200 ft
Symbols :   Thunderstorms  Fog  Heavy snow  Heavy precipitations  Wind > 20 kt
SIGMETs :     Misc.  Thunderstorms  Icing  Turbulence  Mountain Waves  Volcanic Ashes






- Airport Elevation : 16 ft
- IATA code : EAS


LESO - San Sebastian Fuenterrabia

CURRENT METAR :
  • 281900Z 18003KT 160V230 9999 BKN057 15/12 Q1024

EXPIRED METARs :
  • 281830Z 19003KT 9999 BKN057 15/12 Q1024
  • 281800Z 23003KT 200V260 9999 BKN057 16/12 Q1023
  • 281730Z 24003KT 200V270 9999 OVC055 16/11 Q1023
  • 281700Z 24003KT 210V280 9999 OVC050 16/12 Q1023
  • 281630Z 23004KT 200V270 9999 OVC048 17/11 Q1023

TAF TAF LESO
Valid from the 28 at 18:00 until the 29 at 18:00 UTC


281700Z 2818/2918 21003KT 9999 BKN050 TX20/2914Z TN11/2907Z



MET'MAP, your aeronautical weather chart ! - Copyright ORBIFLY December 2007 - Disclaimer

ORBIFLY MET'MAP TEAM :

Programming & Development : Alexandra Zaïnal
Concept & original design : Baudouin d'Aumeries
Assistance for programming : Marc-Olivier Méhu
Technical & hardware support : Manuel Goepfert

Contact : metmap@orbifly.com




SOURCES & CREDITS :

   NOAA